• Join FlightAware (Why Join?)
  • Login
  • US Flag 
Rudolph Flight #1: Scheduled 
10:11PM EST


 

Airport Tracker/Info


-or-


 

Live Flight TrackerFlight Track Log ✈ SWA3943 ✈ 11-Apr-2013 ✈ KDAL - KBHM

Flight Track Log - Related Links

Times and Time Zones

All times are in EDT time to prevent confusion due to time zone crossing. See the SWA3943 flight status page for this flight to view local times or setup timezone preferences in your user account.

Time Position Orientation Groundspeed Altitude Reporting Facility
EDT Latitude Longitude Course Direction KTS MPH feet Rate Location/Type
05:59PM 32.8667 -96.8833 344° North 173 199 1,900  Level Dallas / Fort Worth TRACON
06:00PM 32.9167 -96.9000 344° North 237 273 4,200 2,400 Climbing Dallas / Fort Worth TRACON
06:01PM 32.9667 -96.8333 48° Northeast 303 349 6,800 2,160 Climbing Dallas / Fort Worth TRACON
06:03PM 32.9122 -96.5869 105° East 337 388 11,900 2,280 Climbing Fort Worth Center
06:04PM 32.8861 -96.4511 103° East 368 423 14,900 2,100 Climbing Fort Worth Center
06:05PM 32.8683 -96.3350 100° East 385 443 16,200 1,920 Climbing Fort Worth Center
06:06PM 32.8669 -96.1842 91° East 405 466 18,800 2,280 Climbing Fort Worth Center
06:07PM 32.8700 -96.0606 88° East 405 466 20,800 1,680 Climbing Fort Worth Center
06:08PM 32.8744 -95.9044 88° East 419 482 22,200 1,500 Climbing Fort Worth Center
06:09PM 32.8728 -95.7711 91° East 441 507 23,800 1,380 Climbing Fort Worth Center
06:10PM 32.8811 -95.6075 86° East 441 507 25,000 1,260 Climbing Fort Worth Center
06:11PM 32.8828 -95.4517 89° East 453 521 26,400 1,380 Climbing Fort Worth Center
06:12PM 32.8678 -95.2939 96° East 463 533 27,800 1,080 Climbing Fort Worth Center
06:13PM 32.8444 -95.1533 101° East 473 544 28,600 780 Climbing Fort Worth Center
06:14PM 32.8247 -94.9931 98° East 484 557 29,400 1,200 Climbing Fort Worth Center
06:15PM 32.8047 -94.8306 98° East 489 563 31,100 1,260 Climbing Fort Worth Center
06:16PM 32.8203 -94.6719 83° East 472 543 32,000 780 Climbing Fort Worth Center
06:17PM 32.8481 -94.5178 78° East 477 549 32,700 780 Climbing Fort Worth Center
06:18PM 32.8736 -94.3611 79° East 482 555 33,600 1,020 Climbing Fort Worth Center
06:19PM 32.9028 -94.1869 79° East 491 565 34,800 660 Climbing Fort Worth Center
06:20PM 32.9278 -94.0325 79° East 484 557 35,000 60 Climbing Fort Worth Center
06:21PM 32.9508 -93.8833 80° East 473 544 35,000  Level Fort Worth Center
06:22PM 32.9756 -93.7289 79° East 468 539 35,000  Level Fort Worth Center
06:23PM 32.9983 -93.5792 80° East 463 533 35,000  Level Fort Worth Center
06:24PM 33.0250 -93.4294 78° East 463 533 35,000  Level Fort Worth Center
06:25PM 33.0472 -93.2747 80° East 463 533 35,000  Level Fort Worth Center
06:26PM 33.0711 -93.1200 80° East 468 539 35,000  Level Fort Worth Center
06:27PM 33.0950 -92.9653 80° East 473 544 35,000  Level Fort Worth Center
06:28PM 33.1186 -92.8078 80° East 473 544 35,000  Level Fort Worth Center
06:29PM 33.1419 -92.6553 80° East 473 544 35,000  Level Fort Worth Center
06:30PM 33.1653 -92.5025 80° East 468 539 35,000  Level Fort Worth Center
06:32PM 33.2028 -92.2292 81° East 466 536 35,000  Level Memphis Center
06:33PM 33.2258 -92.0808 79° East 461 531 35,000  Level Memphis Center
06:34PM 33.2422 -91.9444 82° East 461 531 35,000  Level Memphis Center
06:35PM 33.2628 -91.7908 81° East 456 525 35,000  Level Memphis Center
06:36PM 33.2811 -91.6394 82° East 462 532 35,000  Level Memphis Center
06:37PM 33.3036 -91.4883 80° East 462 532 35,000  Level Memphis Center
06:38PM 33.3258 -91.3294 80° East 467 537 35,000  Level Memphis Center
06:39PM 33.3456 -91.1753 81° East 467 537 35,000  Level Memphis Center
06:40PM 33.3653 -91.0214 81° East 467 537 35,000  Level Memphis Center
06:41PM 33.3869 -90.8622 81° East 467 537 35,000  Level Memphis Center
06:42PM 33.4083 -90.7056 81° East 472 543 35,000  Level Memphis Center
06:43PM 33.4294 -90.5514 81° East 467 537 35,000  Level Memphis Center
06:44PM 33.4483 -90.3944 82° East 467 537 35,000  Level Memphis Center
06:45PM 33.4650 -90.2403 83° East 467 537 35,000  Level Memphis Center
06:46PM 33.4669 -90.0858 89° East 462 532 35,000 -180 Level Memphis Center
06:47PM 33.4706 -89.9339 88° East 457 526 34,700 -540 Descending Memphis Center
06:48PM 33.4722 -89.7894 89° East 446 513 34,000 -360 Descending Memphis Center
06:49PM 33.4756 -89.6450 88° East 440 506 34,000 -720 Level Memphis Center
06:50PM 33.4767 -89.4981 89° East 435 501 32,600 -1,500 Descending Memphis Center
06:51PM 33.4797 -89.3486 89° East 441 507 31,000 -1,020 Descending Memphis Center
06:52PM 33.4806 -89.1992 90° East 441 507 30,600 -2,220 Descending Memphis Center
06:53PM 33.4833 -89.0522 89° East 441 507 26,600 -2,940 Descending Memphis Center
06:54PM 33.4839 -88.9050 90° East 441 507 24,700 -2,460 Descending Memphis Center
06:55PM 33.4836 -88.7183 90° East 427 491 21,100 -2,520 Descending Memphis Center
06:56PM 33.4864 -88.6261 88° East 425 489 19,700 -1,680 Descending Memphis Center
06:57PM 33.4836 -88.5714 93° East 415 478 19,400 -720 Descending Memphis Center
06:57PM 33.4908 -88.4892 84° East 413 475 19,000 -420 Descending Memphis Center
06:58PM 33.4942 -88.4342 86° East 429 494 19,000 -300 Level Memphis Center
06:58PM 33.5072 -88.3442 80° East 420 483 18,700 -720 Descending Memphis Center
06:59PM 33.5125 -88.2892 83° East 440 506 18,300 -1,500 Descending Memphis Center
06:59PM 33.5233 -88.1844 83° East 434 499 17,200 -1,320 Descending Memphis Center
07:00PM 33.5311 -88.1517 74° East 430 495 17,000 -900 Descending Memphis Center
07:00PM 33.5375 -88.0494 86° East 427 491 16,300 -1,020 Descending Memphis Center
07:01PM 33.5539 -87.9144 82° East 416 479 15,300 -1,380 Descending Memphis Center
07:02PM 33.5719 -87.7792 81° East 410 472 13,600 -1,800 Descending Memphis Center
07:03PM 33.5839 -87.6517 84° East 405 466 11,700 -1,320 Descending Memphis Center
07:04PM 33.6000 -87.5292 81° East 384 442 11,000 -900 Descending Memphis Center
07:05PM 33.5975 -87.4244 92° East 312 359 9,900 -1,080 Descending Memphis Center
07:06PM 33.5867 -87.3603 101° East 331 381 9,200 -1,080 Descending Atlanta Center
07:07PM 33.5683 -87.2625 103° East 310 357 8,100 -1,440 Descending Atlanta Center
07:08PM 33.5464 -87.1494 103° East 291 335 6,300 -1,500 Descending Atlanta Center
07:09PM 33.5250 -87.0789 110° East 289 333 5,200 -1,560 Descending Atlanta Center
07:10PM 33.4939 -86.9831 111° Southeast 274 315 3,200 -1,320 Descending Atlanta Center
07:11PM 33.4811 -86.9106 102° East 268 308 2,600 -480 Descending Atlanta Center
07:12PM 33.5075 -86.8489 63° Northeast 231 266 2,300 -540 Descending Atlanta Center
07:13PM 33.5256 -86.7897 70° East 183 211 1,600 -720 Descending Atlanta Center
07:15PM 33.5500 -86.7500 140° Southeast  Level FlightAware Approximate
07:22PM 33.5639 -86.7523 140° Southeast  Level Estimated